sensor_id;sensor_type;location;lat;lon;timestamp;P1;durP1;ratioP1;P2;durP2;ratioP2
22904;SDS011;11619;50.140;8.518;2023-02-03T00:01:44;6.60;;;3.00;;
22904;SDS011;11619;50.140;8.518;2023-02-03T00:04:10;6.53;;;2.70;;
22904;SDS011;11619;50.140;8.518;2023-02-03T00:06:37;8.40;;;3.35;;
22904;SDS011;11619;50.140;8.518;2023-02-03T00:09:03;7.30;;;2.92;;
22904;SDS011;11619;50.140;8.518;2023-02-03T00:11:30;13.63;;;3.45;;
22904;SDS011;11619;50.140;8.518;2023-02-03T00:13:56;5.07;;;2.90;;
22904;SDS011;11619;50.140;8.518;2023-02-03T00:16:23;7.22;;;2.50;;
22904;SDS011;11619;50.140;8.518;2023-02-03T00:18:49;4.72;;;2.65;;
22904;SDS011;11619;50.140;8.518;2023-02-03T00:21:16;8.27;;;3.30;;
22904;SDS011;11619;50.140;8.518;2023-02-03T00:23:42;3.97;;;2.55;;
22904;SDS011;11619;50.140;8.518;2023-02-03T00:26:09;5.80;;;2.78;;
22904;SDS011;11619;50.140;8.518;2023-02-03T00:28:39;8.00;;;3.03;;
22904;SDS011;11619;50.140;8.518;2023-02-03T00:31:12;5.78;;;2.92;;
22904;SDS011;11619;50.140;8.518;2023-02-03T00:33:40;7.38;;;2.60;;
22904;SDS011;11619;50.140;8.518;2023-02-03T00:36:06;6.45;;;2.28;;
22904;SDS011;11619;50.140;8.518;2023-02-03T00:38:33;4.13;;;2.35;;
22904;SDS011;11619;50.140;8.518;2023-02-03T00:41:00;9.30;;;2.67;;
22904;SDS011;11619;50.140;8.518;2023-02-03T00:43:26;6.07;;;2.55;;
22904;SDS011;11619;50.140;8.518;2023-02-03T00:45:53;4.65;;;2.88;;
22904;SDS011;11619;50.140;8.518;2023-02-03T00:48:20;5.88;;;2.42;;
22904;SDS011;11619;50.140;8.518;2023-02-03T00:50:46;5.85;;;2.10;;
22904;SDS011;11619;50.140;8.518;2023-02-03T00:53:13;4.53;;;2.15;;
22904;SDS011;11619;50.140;8.518;2023-02-03T00:55:41;4.97;;;2.28;;
22904;SDS011;11619;50.140;8.518;2023-02-03T00:58:08;2.63;;;1.80;;
22904;SDS011;11619;50.140;8.518;2023-02-03T01:00:34;5.40;;;1.90;;
22904;SDS011;11619;50.140;8.518;2023-02-03T01:03:01;5.80;;;2.50;;
22904;SDS011;11619;50.140;8.518;2023-02-03T01:05:27;3.88;;;1.90;;
22904;SDS011;11619;50.140;8.518;2023-02-03T01:07:53;2.13;;;1.92;;
22904;SDS011;11619;50.140;8.518;2023-02-03T01:10:20;4.82;;;2.17;;
22904;SDS011;11619;50.140;8.518;2023-02-03T01:12:46;4.18;;;2.22;;
22904;SDS011;11619;50.140;8.518;2023-02-03T01:15:13;4.50;;;1.92;;
22904;SDS011;11619;50.140;8.518;2023-02-03T01:17:39;4.45;;;2.03;;
22904;SDS011;11619;50.140;8.518;2023-02-03T01:20:05;3.33;;;2.00;;
22904;SDS011;11619;50.140;8.518;2023-02-03T01:22:32;4.75;;;2.17;;
22904;SDS011;11619;50.140;8.518;2023-02-03T01:24:58;3.78;;;2.38;;
22904;SDS011;11619;50.140;8.518;2023-02-03T01:27:25;5.15;;;2.10;;
22904;SDS011;11619;50.140;8.518;2023-02-03T01:29:51;3.83;;;2.00;;
22904;SDS011;11619;50.140;8.518;2023-02-03T01:32:18;3.50;;;2.10;;
22904;SDS011;11619;50.140;8.518;2023-02-03T01:34:44;2.83;;;1.70;;
22904;SDS011;11619;50.140;8.518;2023-02-03T01:37:11;4.38;;;2.17;;
22904;SDS011;11619;50.140;8.518;2023-02-03T01:39:39;6.28;;;2.03;;
22904;SDS011;11619;50.140;8.518;2023-02-03T01:42:07;4.13;;;1.88;;
22904;SDS011;11619;50.140;8.518;2023-02-03T01:44:47;3.60;;;2.03;;
22904;SDS011;11619;50.140;8.518;2023-02-03T01:47:17;2.95;;;1.95;;
22904;SDS011;11619;50.140;8.518;2023-02-03T01:49:54;3.65;;;2.08;;
22904;SDS011;11619;50.140;8.518;2023-02-03T01:52:25;4.45;;;2.53;;
22904;SDS011;11619;50.140;8.518;2023-02-03T01:54:52;6.38;;;1.83;;
22904;SDS011;11619;50.140;8.518;2023-02-03T01:57:28;4.88;;;2.55;;
22904;SDS011;11619;50.140;8.518;2023-02-03T01:59:58;2.60;;;2.00;;
22904;SDS011;11619;50.140;8.518;2023-02-03T02:02:25;5.53;;;2.17;;
22904;SDS011;11619;50.140;8.518;2023-02-03T02:07:56;2.85;;;2.08;;
22904;SDS011;11619;50.140;8.518;2023-02-03T02:10:24;4.97;;;2.00;;
22904;SDS011;11619;50.140;8.518;2023-02-03T02:12:53;4.78;;;2.10;;
22904;SDS011;11619;50.140;8.518;2023-02-03T02:15:21;5.75;;;2.53;;
22904;SDS011;11619;50.140;8.518;2023-02-03T02:24:31;3.30;;;2.03;;
22904;SDS011;11619;50.140;8.518;2023-02-03T02:32:38;3.22;;;1.98;;
22904;SDS011;11619;50.140;8.518;2023-02-03T02:38:36;2.08;;;1.88;;
22904;SDS011;11619;50.140;8.518;2023-02-03T02:44:11;2.95;;;2.15;;
22904;SDS011;11619;50.140;8.518;2023-02-03T02:46:43;4.15;;;2.17;;
22904;SDS011;11619;50.140;8.518;2023-02-03T02:49:19;2.78;;;1.98;;
22904;SDS011;11619;50.140;8.518;2023-02-03T02:51:48;7.28;;;2.40;;
22904;SDS011;11619;50.140;8.518;2023-02-03T02:54:16;3.60;;;1.95;;
22904;SDS011;11619;50.140;8.518;2023-02-03T02:56:47;2.65;;;1.90;;
22904;SDS011;11619;50.140;8.518;2023-02-03T02:59:18;3.55;;;1.88;;
22904;SDS011;11619;50.140;8.518;2023-02-03T03:01:44;3.33;;;2.00;;
22904;SDS011;11619;50.140;8.518;2023-02-03T03:04:11;2.88;;;1.73;;
22904;SDS011;11619;50.140;8.518;2023-02-03T03:06:42;4.95;;;2.10;;
22904;SDS011;11619;50.140;8.518;2023-02-03T03:09:11;4.07;;;2.22;;
22904;SDS011;11619;50.140;8.518;2023-02-03T03:12:04;2.13;;;1.80;;
22904;SDS011;11619;50.140;8.518;2023-02-03T03:14:33;4.10;;;2.03;;
22904;SDS011;11619;50.140;8.518;2023-02-03T03:17:02;2.80;;;1.95;;
22904;SDS011;11619;50.140;8.518;2023-02-03T03:19:31;3.35;;;2.20;;
22904;SDS011;11619;50.140;8.518;2023-02-03T03:22:01;3.97;;;2.20;;
22904;SDS011;11619;50.140;8.518;2023-02-03T03:24:33;2.95;;;2.05;;
22904;SDS011;11619;50.140;8.518;2023-02-03T03:27:05;2.38;;;1.85;;
22904;SDS011;11619;50.140;8.518;2023-02-03T03:29:36;5.03;;;2.28;;
22904;SDS011;11619;50.140;8.518;2023-02-03T03:32:04;2.58;;;1.50;;
22904;SDS011;11619;50.140;8.518;2023-02-03T03:34:31;4.97;;;2.15;;
22904;SDS011;11619;50.140;8.518;2023-02-03T03:37:19;4.22;;;1.95;;
22904;SDS011;11619;50.140;8.518;2023-02-03T03:42:28;2.85;;;1.60;;
22904;SDS011;11619;50.140;8.518;2023-02-03T03:47:35;2.58;;;1.70;;
22904;SDS011;11619;50.140;8.518;2023-02-03T03:50:06;1.92;;;1.48;;
22904;SDS011;11619;50.140;8.518;2023-02-03T03:52:35;2.15;;;1.60;;
22904;SDS011;11619;50.140;8.518;2023-02-03T03:55:03;2.03;;;1.65;;
22904;SDS011;11619;50.140;8.518;2023-02-03T03:57:34;2.95;;;1.60;;
22904;SDS011;11619;50.140;8.518;2023-02-03T04:00:03;2.25;;;1.48;;
22904;SDS011;11619;50.140;8.518;2023-02-03T04:02:31;2.53;;;1.77;;
22904;SDS011;11619;50.140;8.518;2023-02-03T04:04:58;2.08;;;1.90;;
22904;SDS011;11619;50.140;8.518;2023-02-03T04:07:36;2.95;;;1.60;;
22904;SDS011;11619;50.140;8.518;2023-02-03T04:10:26;2.08;;;1.70;;
22904;SDS011;11619;50.140;8.518;2023-02-03T04:13:05;2.55;;;1.70;;
22904;SDS011;11619;50.140;8.518;2023-02-03T04:15:32;2.33;;;1.58;;
22904;SDS011;11619;50.140;8.518;2023-02-03T04:17:59;2.65;;;1.63;;
22904;SDS011;11619;50.140;8.518;2023-02-03T04:20:29;2.55;;;1.42;;
22904;SDS011;11619;50.140;8.518;2023-02-03T04:22:57;2.75;;;1.90;;
22904;SDS011;11619;50.140;8.518;2023-02-03T04:25:24;2.90;;;1.40;;
22904;SDS011;11619;50.140;8.518;2023-02-03T04:27:50;2.70;;;1.48;;
22904;SDS011;11619;50.140;8.518;2023-02-03T04:30:17;3.40;;;1.55;;
22904;SDS011;11619;50.140;8.518;2023-02-03T04:32:44;1.88;;;1.60;;
22904;SDS011;11619;50.140;8.518;2023-02-03T04:35:10;2.28;;;1.85;;
22904;SDS011;11619;50.140;8.518;2023-02-03T04:37:37;6.45;;;1.92;;
22904;SDS011;11619;50.140;8.518;2023-02-03T04:40:03;2.40;;;1.35;;
22904;SDS011;11619;50.140;8.518;2023-02-03T04:42:30;3.15;;;1.90;;
22904;SDS011;11619;50.140;8.518;2023-02-03T04:44:57;3.83;;;1.88;;
22904;SDS011;11619;50.140;8.518;2023-02-03T04:47:23;2.58;;;1.90;;
22904;SDS011;11619;50.140;8.518;2023-02-03T04:49:49;5.03;;;1.75;;
22904;SDS011;11619;50.140;8.518;2023-02-03T04:52:16;2.25;;;1.80;;
22904;SDS011;11619;50.140;8.518;2023-02-03T04:54:42;2.92;;;1.98;;
22904;SDS011;11619;50.140;8.518;2023-02-03T04:57:08;2.47;;;2.05;;
22904;SDS011;11619;50.140;8.518;2023-02-03T04:59:35;4.15;;;2.22;;
22904;SDS011;11619;50.140;8.518;2023-02-03T05:02:02;2.67;;;1.90;;
22904;SDS011;11619;50.140;8.518;2023-02-03T05:04:31;5.30;;;2.45;;
22904;SDS011;11619;50.140;8.518;2023-02-03T05:06:57;2.10;;;1.90;;
22904;SDS011;11619;50.140;8.518;2023-02-03T05:09:24;1.70;;;1.58;;
22904;SDS011;11619;50.140;8.518;2023-02-03T05:11:51;2.78;;;2.10;;
22904;SDS011;11619;50.140;8.518;2023-02-03T05:14:17;2.78;;;1.80;;
22904;SDS011;11619;50.140;8.518;2023-02-03T05:16:44;6.32;;;2.15;;
22904;SDS011;11619;50.140;8.518;2023-02-03T05:19:11;3.28;;;1.75;;
22904;SDS011;11619;50.140;8.518;2023-02-03T05:21:38;2.03;;;1.90;;
22904;SDS011;11619;50.140;8.518;2023-02-03T05:24:04;2.40;;;1.70;;
22904;SDS011;11619;50.140;8.518;2023-02-03T05:26:33;2.20;;;1.58;;
22904;SDS011;11619;50.140;8.518;2023-02-03T05:29:00;4.38;;;1.75;;
22904;SDS011;11619;50.140;8.518;2023-02-03T05:31:26;1.95;;;1.70;;
22904;SDS011;11619;50.140;8.518;2023-02-03T05:33:53;2.95;;;1.70;;
22904;SDS011;11619;50.140;8.518;2023-02-03T05:36:19;5.10;;;2.17;;
22904;SDS011;11619;50.140;8.518;2023-02-03T05:38:45;3.72;;;1.60;;
22904;SDS011;11619;50.140;8.518;2023-02-03T05:41:12;3.33;;;1.92;;
22904;SDS011;11619;50.140;8.518;2023-02-03T05:43:57;3.35;;;1.92;;
22904;SDS011;11619;50.140;8.518;2023-02-03T05:46:23;2.33;;;1.65;;
22904;SDS011;11619;50.140;8.518;2023-02-03T05:48:49;3.70;;;1.70;;
22904;SDS011;11619;50.140;8.518;2023-02-03T05:51:16;3.90;;;1.45;;
22904;SDS011;11619;50.140;8.518;2023-02-03T05:53:42;4.07;;;1.73;;
22904;SDS011;11619;50.140;8.518;2023-02-03T05:56:09;4.15;;;2.15;;
22904;SDS011;11619;50.140;8.518;2023-02-03T05:58:35;3.33;;;1.70;;
22904;SDS011;11619;50.140;8.518;2023-02-03T06:01:02;2.10;;;1.85;;
22904;SDS011;11619;50.140;8.518;2023-02-03T06:03:28;5.22;;;1.92;;
22904;SDS011;11619;50.140;8.518;2023-02-03T06:05:55;5.40;;;1.70;;
22904;SDS011;11619;50.140;8.518;2023-02-03T06:08:21;2.85;;;1.60;;
22904;SDS011;11619;50.140;8.518;2023-02-03T06:10:47;3.63;;;2.20;;
22904;SDS011;11619;50.140;8.518;2023-02-03T06:13:14;3.17;;;1.90;;
22904;SDS011;11619;50.140;8.518;2023-02-03T06:15:41;2.38;;;1.70;;
22904;SDS011;11619;50.140;8.518;2023-02-03T06:18:07;1.80;;;1.60;;
22904;SDS011;11619;50.140;8.518;2023-02-03T06:20:34;5.45;;;2.30;;
22904;SDS011;11619;50.140;8.518;2023-02-03T06:23:00;3.78;;;1.77;;
22904;SDS011;11619;50.140;8.518;2023-02-03T06:25:27;3.08;;;1.73;;
22904;SDS011;11619;50.140;8.518;2023-02-03T06:27:53;2.85;;;1.58;;
22904;SDS011;11619;50.140;8.518;2023-02-03T06:30:20;2.50;;;1.75;;
22904;SDS011;11619;50.140;8.518;2023-02-03T06:32:48;2.15;;;1.40;;
22904;SDS011;11619;50.140;8.518;2023-02-03T06:35:15;4.60;;;2.00;;
22904;SDS011;11619;50.140;8.518;2023-02-03T06:37:42;2.97;;;1.63;;
22904;SDS011;11619;50.140;8.518;2023-02-03T06:40:09;4.63;;;2.00;;
22904;SDS011;11619;50.140;8.518;2023-02-03T06:42:36;2.22;;;1.45;;
22904;SDS011;11619;50.140;8.518;2023-02-03T06:45:03;3.13;;;1.63;;
22904;SDS011;11619;50.140;8.518;2023-02-03T06:47:29;2.53;;;1.70;;
22904;SDS011;11619;50.140;8.518;2023-02-03T06:49:56;2.67;;;2.10;;
22904;SDS011;11619;50.140;8.518;2023-02-03T06:52:22;4.45;;;1.80;;
22904;SDS011;11619;50.140;8.518;2023-02-03T06:54:49;4.20;;;1.90;;
22904;SDS011;11619;50.140;8.518;2023-02-03T06:57:15;4.60;;;1.70;;
22904;SDS011;11619;50.140;8.518;2023-02-03T06:59:41;1.70;;;1.60;;
22904;SDS011;11619;50.140;8.518;2023-02-03T07:02:09;2.35;;;1.70;;
22904;SDS011;11619;50.140;8.518;2023-02-03T07:04:36;5.90;;;4.30;;
22904;SDS011;11619;50.140;8.518;2023-02-03T07:07:04;5.18;;;3.40;;
22904;SDS011;11619;50.140;8.518;2023-02-03T07:09:31;4.55;;;3.95;;
22904;SDS011;11619;50.140;8.518;2023-02-03T07:11:59;7.30;;;2.30;;
22904;SDS011;11619;50.140;8.518;2023-02-03T07:14:25;3.15;;;1.90;;
22904;SDS011;11619;50.140;8.518;2023-02-03T07:16:52;3.42;;;2.20;;
22904;SDS011;11619;50.140;8.518;2023-02-03T07:19:19;2.55;;;1.90;;
22904;SDS011;11619;50.140;8.518;2023-02-03T07:21:45;3.35;;;1.88;;
22904;SDS011;11619;50.140;8.518;2023-02-03T07:24:12;3.00;;;1.88;;
22904;SDS011;11619;50.140;8.518;2023-02-03T07:26:38;3.92;;;2.03;;
22904;SDS011;11619;50.140;8.518;2023-02-03T07:29:05;4.35;;;1.92;;
22904;SDS011;11619;50.140;8.518;2023-02-03T07:31:31;3.95;;;1.80;;
22904;SDS011;11619;50.140;8.518;2023-02-03T07:33:58;3.42;;;2.00;;
22904;SDS011;11619;50.140;8.518;2023-02-03T07:36:26;3.42;;;2.03;;
22904;SDS011;11619;50.140;8.518;2023-02-03T07:38:53;3.13;;;2.05;;
22904;SDS011;11619;50.140;8.518;2023-02-03T07:41:20;2.55;;;1.83;;
22904;SDS011;11619;50.140;8.518;2023-02-03T07:43:46;4.35;;;1.95;;
22904;SDS011;11619;50.140;8.518;2023-02-03T07:46:13;4.00;;;2.08;;
22904;SDS011;11619;50.140;8.518;2023-02-03T07:48:40;3.90;;;2.25;;
22904;SDS011;11619;50.140;8.518;2023-02-03T07:51:06;1.98;;;1.77;;
22904;SDS011;11619;50.140;8.518;2023-02-03T07:53:33;4.03;;;1.92;;
22904;SDS011;11619;50.140;8.518;2023-02-03T07:56:00;2.35;;;1.48;;
22904;SDS011;11619;50.140;8.518;2023-02-03T07:58:27;2.67;;;1.77;;
22904;SDS011;11619;50.140;8.518;2023-02-03T08:00:54;3.97;;;1.70;;
22904;SDS011;11619;50.140;8.518;2023-02-03T08:03:21;5.95;;;2.00;;
22904;SDS011;11619;50.140;8.518;2023-02-03T08:05:47;2.28;;;1.40;;
22904;SDS011;11619;50.140;8.518;2023-02-03T08:08:14;4.05;;;1.90;;
22904;SDS011;11619;50.140;8.518;2023-02-03T08:10:40;3.13;;;1.50;;
22904;SDS011;11619;50.140;8.518;2023-02-03T08:13:07;3.13;;;1.80;;
22904;SDS011;11619;50.140;8.518;2023-02-03T08:15:33;2.58;;;2.00;;
22904;SDS011;11619;50.140;8.518;2023-02-03T08:18:00;3.03;;;1.63;;
22904;SDS011;11619;50.140;8.518;2023-02-03T08:20:26;3.60;;;1.80;;
22904;SDS011;11619;50.140;8.518;2023-02-03T08:22:53;2.58;;;1.88;;
22904;SDS011;11619;50.140;8.518;2023-02-03T08:25:21;5.00;;;2.40;;
22904;SDS011;11619;50.140;8.518;2023-02-03T08:27:48;5.15;;;2.75;;
22904;SDS011;11619;50.140;8.518;2023-02-03T08:30:14;2.67;;;1.75;;
22904;SDS011;11619;50.140;8.518;2023-02-03T08:32:40;2.78;;;1.67;;
22904;SDS011;11619;50.140;8.518;2023-02-03T08:35:08;5.00;;;2.30;;
22904;SDS011;11619;50.140;8.518;2023-02-03T08:37:35;6.00;;;2.15;;
22904;SDS011;11619;50.140;8.518;2023-02-03T08:40:02;4.07;;;2.55;;
22904;SDS011;11619;50.140;8.518;2023-02-03T08:42:29;4.20;;;2.70;;
22904;SDS011;11619;50.140;8.518;2023-02-03T08:44:55;3.38;;;1.55;;
22904;SDS011;11619;50.140;8.518;2023-02-03T08:47:21;3.45;;;2.25;;
22904;SDS011;11619;50.140;8.518;2023-02-03T08:49:48;4.90;;;1.90;;
22904;SDS011;11619;50.140;8.518;2023-02-03T08:52:14;6.45;;;2.42;;
22904;SDS011;11619;50.140;8.518;2023-02-03T08:54:44;3.83;;;1.45;;
22904;SDS011;11619;50.140;8.518;2023-02-03T08:57:11;2.60;;;1.60;;
22904;SDS011;11619;50.140;8.518;2023-02-03T08:59:38;4.57;;;2.83;;
22904;SDS011;11619;50.140;8.518;2023-02-03T09:02:06;3.88;;;2.85;;
22904;SDS011;11619;50.140;8.518;2023-02-03T09:04:36;5.30;;;3.13;;
22904;SDS011;11619;50.140;8.518;2023-02-03T09:07:02;6.13;;;2.55;;
22904;SDS011;11619;50.140;8.518;2023-02-03T09:09:29;4.00;;;2.47;;
22904;SDS011;11619;50.140;8.518;2023-02-03T09:11:57;4.90;;;1.98;;
22904;SDS011;11619;50.140;8.518;2023-02-03T09:14:30;4.88;;;2.00;;
22904;SDS011;11619;50.140;8.518;2023-02-03T09:16:58;3.20;;;2.10;;
22904;SDS011;11619;50.140;8.518;2023-02-03T09:19:26;4.65;;;2.75;;
22904;SDS011;11619;50.140;8.518;2023-02-03T09:21:52;6.65;;;1.88;;
22904;SDS011;11619;50.140;8.518;2023-02-03T09:24:19;3.33;;;1.67;;
22904;SDS011;11619;50.140;8.518;2023-02-03T09:26:46;3.70;;;1.73;;
22904;SDS011;11619;50.140;8.518;2023-02-03T09:29:12;3.72;;;1.13;;
22904;SDS011;11619;50.140;8.518;2023-02-03T09:31:38;2.83;;;1.55;;
22904;SDS011;11619;50.140;8.518;2023-02-03T09:34:05;5.22;;;1.80;;
22904;SDS011;11619;50.140;8.518;2023-02-03T09:36:32;4.28;;;1.65;;
22904;SDS011;11619;50.140;8.518;2023-02-03T09:38:58;4.03;;;1.60;;
22904;SDS011;11619;50.140;8.518;2023-02-03T09:44:22;2.85;;;1.60;;
22904;SDS011;11619;50.140;8.518;2023-02-03T09:46:58;3.10;;;1.52;;
22904;SDS011;11619;50.140;8.518;2023-02-03T09:49:27;3.42;;;1.55;;
22904;SDS011;11619;50.140;8.518;2023-02-03T09:52:02;2.85;;;1.50;;
22904;SDS011;11619;50.140;8.518;2023-02-03T09:57:21;2.63;;;1.50;;
22904;SDS011;11619;50.140;8.518;2023-02-03T09:59:48;2.97;;;1.35;;
22904;SDS011;11619;50.140;8.518;2023-02-03T10:02:29;7.07;;;1.50;;
22904;SDS011;11619;50.140;8.518;2023-02-03T10:05:08;2.25;;;1.50;;
22904;SDS011;11619;50.140;8.518;2023-02-03T10:18:44;3.35;;;1.30;;
22904;SDS011;11619;50.140;8.518;2023-02-03T10:21:17;1.98;;;1.10;;
22904;SDS011;11619;50.140;8.518;2023-02-03T10:23:48;3.55;;;1.27;;
22904;SDS011;11619;50.140;8.518;2023-02-03T10:26:17;4.68;;;1.50;;
22904;SDS011;11619;50.140;8.518;2023-02-03T10:28:56;1.55;;;1.20;;
22904;SDS011;11619;50.140;8.518;2023-02-03T10:31:27;3.47;;;1.77;;
22904;SDS011;11619;50.140;8.518;2023-02-03T10:36:44;5.10;;;1.30;;
22904;SDS011;11619;50.140;8.518;2023-02-03T10:39:20;3.45;;;1.52;;
22904;SDS011;11619;50.140;8.518;2023-02-03T10:42:06;6.00;;;1.65;;
22904;SDS011;11619;50.140;8.518;2023-02-03T10:44:37;2.47;;;1.35;;
22904;SDS011;11619;50.140;8.518;2023-02-03T10:47:24;1.70;;;1.08;;
22904;SDS011;11619;50.140;8.518;2023-02-03T10:49:55;2.63;;;1.15;;
22904;SDS011;11619;50.140;8.518;2023-02-03T10:52:24;2.83;;;1.10;;
22904;SDS011;11619;50.140;8.518;2023-02-03T10:54:54;4.90;;;1.65;;
22904;SDS011;11619;50.140;8.518;2023-02-03T10:57:21;3.85;;;1.30;;
22904;SDS011;11619;50.140;8.518;2023-02-03T10:59:48;1.83;;;1.20;;
22904;SDS011;11619;50.140;8.518;2023-02-03T11:02:20;2.00;;;1.42;;
22904;SDS011;11619;50.140;8.518;2023-02-03T11:07:52;2.72;;;1.30;;
22904;SDS011;11619;50.140;8.518;2023-02-03T11:10:29;2.85;;;1.35;;
22904;SDS011;11619;50.140;8.518;2023-02-03T11:13:12;5.00;;;1.33;;
22904;SDS011;11619;50.140;8.518;2023-02-03T11:21:15;1.60;;;1.02;;
22904;SDS011;11619;50.140;8.518;2023-02-03T11:23:44;3.92;;;1.10;;
22904;SDS011;11619;50.140;8.518;2023-02-03T11:26:14;3.60;;;1.20;;
22904;SDS011;11619;50.140;8.518;2023-02-03T11:28:45;3.13;;;1.08;;
22904;SDS011;11619;50.140;8.518;2023-02-03T11:31:14;2.75;;;1.05;;
22904;SDS011;11619;50.140;8.518;2023-02-03T11:33:45;1.85;;;1.13;;
22904;SDS011;11619;50.140;8.518;2023-02-03T11:36:13;4.85;;;1.67;;
22904;SDS011;11619;50.140;8.518;2023-02-03T11:38:39;2.95;;;1.20;;
22904;SDS011;11619;50.140;8.518;2023-02-03T11:41:13;3.30;;;1.13;;
22904;SDS011;11619;50.140;8.518;2023-02-03T11:43:41;2.15;;;1.13;;
22904;SDS011;11619;50.140;8.518;2023-02-03T11:46:08;1.80;;;1.05;;
22904;SDS011;11619;50.140;8.518;2023-02-03T11:48:35;4.85;;;1.55;;
22904;SDS011;11619;50.140;8.518;2023-02-03T12:07:29;16.73;;;7.28;;
22904;SDS011;11619;50.140;8.518;2023-02-03T12:10:00;6.65;;;5.10;;
22904;SDS011;11619;50.140;8.518;2023-02-03T12:18:03;3.58;;;1.98;;
22904;SDS011;11619;50.140;8.518;2023-02-03T12:20:40;1.55;;;1.20;;
22904;SDS011;11619;50.140;8.518;2023-02-03T12:23:21;4.55;;;2.17;;
22904;SDS011;11619;50.140;8.518;2023-02-03T12:26:02;2.72;;;1.50;;
22904;SDS011;11619;50.140;8.518;2023-02-03T12:28:39;2.53;;;1.33;;
22904;SDS011;11619;50.140;8.518;2023-02-03T12:34:05;3.83;;;1.30;;
22904;SDS011;11619;50.140;8.518;2023-02-03T12:36:47;2.97;;;1.80;;
22904;SDS011;11619;50.140;8.518;2023-02-03T12:39:20;4.80;;;2.13;;
22904;SDS011;11619;50.140;8.518;2023-02-03T12:41:56;3.35;;;2.22;;
22904;SDS011;11619;50.140;8.518;2023-02-03T12:44:28;2.45;;;1.60;;
22904;SDS011;11619;50.140;8.518;2023-02-03T12:49:39;3.97;;;1.92;;
22904;SDS011;11619;50.140;8.518;2023-02-03T12:52:26;3.47;;;1.73;;
22904;SDS011;11619;50.140;8.518;2023-02-03T12:55:02;4.38;;;1.88;;
22904;SDS011;11619;50.140;8.518;2023-02-03T12:57:51;5.55;;;1.55;;
22904;SDS011;11619;50.140;8.518;2023-02-03T13:00:27;3.45;;;1.77;;
22904;SDS011;11619;50.140;8.518;2023-02-03T13:03:12;3.28;;;1.55;;
22904;SDS011;11619;50.140;8.518;2023-02-03T13:05:44;3.42;;;1.30;;
22904;SDS011;11619;50.140;8.518;2023-02-03T13:14:11;3.15;;;1.58;;
22904;SDS011;11619;50.140;8.518;2023-02-03T13:16:41;2.53;;;1.42;;
22904;SDS011;11619;50.140;8.518;2023-02-03T13:19:14;4.57;;;3.45;;
22904;SDS011;11619;50.140;8.518;2023-02-03T13:21:43;4.57;;;1.90;;
22904;SDS011;11619;50.140;8.518;2023-02-03T13:24:11;2.95;;;2.17;;
22904;SDS011;11619;50.140;8.518;2023-02-03T13:26:50;2.65;;;1.77;;
22904;SDS011;11619;50.140;8.518;2023-02-03T13:29:37;4.65;;;2.60;;
22904;SDS011;11619;50.140;8.518;2023-02-03T13:32:23;1.27;;;1.10;;
22904;SDS011;11619;50.140;8.518;2023-02-03T13:35:31;3.78;;;1.50;;
22904;SDS011;11619;50.140;8.518;2023-02-03T13:43:22;2.78;;;1.60;;
22904;SDS011;11619;50.140;8.518;2023-02-03T13:46:04;1.80;;;1.30;;
22904;SDS011;11619;50.140;8.518;2023-02-03T13:48:34;3.65;;;1.50;;
22904;SDS011;11619;50.140;8.518;2023-02-03T13:51:07;1.90;;;1.30;;
22904;SDS011;11619;50.140;8.518;2023-02-03T13:53:42;2.28;;;1.10;;
22904;SDS011;11619;50.140;8.518;2023-02-03T13:56:15;3.05;;;1.45;;
22904;SDS011;11619;50.140;8.518;2023-02-03T13:58:57;1.52;;;1.10;;
22904;SDS011;11619;50.140;8.518;2023-02-03T14:01:30;1.50;;;1.10;;
22904;SDS011;11619;50.140;8.518;2023-02-03T14:04:04;2.85;;;1.48;;
22904;SDS011;11619;50.140;8.518;2023-02-03T14:11:50;2.97;;;1.00;;
22904;SDS011;11619;50.140;8.518;2023-02-03T14:16:46;3.65;;;1.30;;
22904;SDS011;11619;50.140;8.518;2023-02-03T14:24:32;1.60;;;1.50;;
22904;SDS011;11619;50.140;8.518;2023-02-03T14:27:01;1.77;;;1.65;;
22904;SDS011;11619;50.140;8.518;2023-02-03T14:29:31;3.40;;;2.53;;
22904;SDS011;11619;50.140;8.518;2023-02-03T14:32:12;2.78;;;1.15;;
22904;SDS011;11619;50.140;8.518;2023-02-03T14:34:40;2.95;;;1.70;;
22904;SDS011;11619;50.140;8.518;2023-02-03T14:37:23;2.25;;;1.42;;
22904;SDS011;11619;50.140;8.518;2023-02-03T14:40:10;2.25;;;1.40;;
22904;SDS011;11619;50.140;8.518;2023-02-03T14:43:02;4.20;;;1.75;;
22904;SDS011;11619;50.140;8.518;2023-02-03T14:45:56;1.40;;;1.27;;
22904;SDS011;11619;50.140;8.518;2023-02-03T14:48:41;4.65;;;3.05;;
22904;SDS011;11619;50.140;8.518;2023-02-03T14:56:45;2.05;;;1.60;;
22904;SDS011;11619;50.140;8.518;2023-02-03T15:02:14;3.00;;;1.52;;
22904;SDS011;11619;50.140;8.518;2023-02-03T15:04:42;1.92;;;1.75;;
22904;SDS011;11619;50.140;8.518;2023-02-03T15:10:03;2.15;;;1.95;;
22904;SDS011;11619;50.140;8.518;2023-02-03T15:12:42;4.78;;;1.80;;
22904;SDS011;11619;50.140;8.518;2023-02-03T15:15:19;2.03;;;1.70;;
22904;SDS011;11619;50.140;8.518;2023-02-03T15:17:57;3.70;;;2.20;;
22904;SDS011;11619;50.140;8.518;2023-02-03T15:20:31;3.35;;;2.65;;
22904;SDS011;11619;50.140;8.518;2023-02-03T15:22:59;2.50;;;2.30;;
22904;SDS011;11619;50.140;8.518;2023-02-03T15:25:27;3.78;;;2.30;;
22904;SDS011;11619;50.140;8.518;2023-02-03T15:28:11;2.92;;;2.15;;
22904;SDS011;11619;50.140;8.518;2023-02-03T15:30:41;2.55;;;2.10;;
22904;SDS011;11619;50.140;8.518;2023-02-03T15:33:10;3.45;;;2.75;;
22904;SDS011;11619;50.140;8.518;2023-02-03T15:35:40;5.63;;;2.30;;
22904;SDS011;11619;50.140;8.518;2023-02-03T15:38:10;2.90;;;2.40;;
22904;SDS011;11619;50.140;8.518;2023-02-03T15:40:43;3.00;;;2.70;;
22904;SDS011;11619;50.140;8.518;2023-02-03T15:43:21;4.75;;;2.30;;
22904;SDS011;11619;50.140;8.518;2023-02-03T15:48:39;2.72;;;2.38;;
22904;SDS011;11619;50.140;8.518;2023-02-03T15:59:23;3.40;;;2.70;;
22904;SDS011;11619;50.140;8.518;2023-02-03T16:01:50;4.78;;;3.47;;
22904;SDS011;11619;50.140;8.518;2023-02-03T16:04:18;3.17;;;2.85;;
22904;SDS011;11619;50.140;8.518;2023-02-03T16:06:45;3.38;;;2.88;;
22904;SDS011;11619;50.140;8.518;2023-02-03T16:12:03;5.70;;;3.80;;
22904;SDS011;11619;50.140;8.518;2023-02-03T16:14:35;4.70;;;3.25;;
22904;SDS011;11619;50.140;8.518;2023-02-03T16:17:01;3.90;;;3.08;;
22904;SDS011;11619;50.140;8.518;2023-02-03T16:19:31;4.85;;;3.75;;
22904;SDS011;11619;50.140;8.518;2023-02-03T16:22:02;3.83;;;3.53;;
22904;SDS011;11619;50.140;8.518;2023-02-03T16:29:53;4.28;;;3.08;;
22904;SDS011;11619;50.140;8.518;2023-02-03T16:33:00;4.10;;;3.20;;
22904;SDS011;11619;50.140;8.518;2023-02-03T16:35:48;3.97;;;3.10;;
22904;SDS011;11619;50.140;8.518;2023-02-03T16:38:33;5.35;;;4.35;;
22904;SDS011;11619;50.140;8.518;2023-02-03T16:41:18;3.75;;;3.05;;
22904;SDS011;11619;50.140;8.518;2023-02-03T16:44:03;4.38;;;3.28;;
22904;SDS011;11619;50.140;8.518;2023-02-03T16:46:48;9.20;;;5.38;;
22904;SDS011;11619;50.140;8.518;2023-02-03T16:49:33;4.57;;;3.63;;
22904;SDS011;11619;50.140;8.518;2023-02-03T16:52:18;6.55;;;5.60;;
22904;SDS011;11619;50.140;8.518;2023-02-03T16:54:45;4.45;;;3.40;;
22904;SDS011;11619;50.140;8.518;2023-02-03T16:57:11;3.72;;;3.40;;
22904;SDS011;11619;50.140;8.518;2023-02-03T16:59:38;4.82;;;3.70;;
22904;SDS011;11619;50.140;8.518;2023-02-03T17:02:04;5.90;;;4.30;;
22904;SDS011;11619;50.140;8.518;2023-02-03T17:04:31;5.78;;;4.72;;
22904;SDS011;11619;50.140;8.518;2023-02-03T17:06:58;5.03;;;3.33;;
22904;SDS011;11619;50.140;8.518;2023-02-03T17:09:24;4.95;;;3.55;;
22904;SDS011;11619;50.140;8.518;2023-02-03T17:11:50;5.50;;;3.40;;
22904;SDS011;11619;50.140;8.518;2023-02-03T17:14:17;5.45;;;3.25;;
22904;SDS011;11619;50.140;8.518;2023-02-03T17:16:43;4.93;;;3.40;;
22904;SDS011;11619;50.140;8.518;2023-02-03T17:19:10;5.85;;;3.30;;
22904;SDS011;11619;50.140;8.518;2023-02-03T17:21:37;7.63;;;4.32;;
22904;SDS011;11619;50.140;8.518;2023-02-03T17:24:04;6.25;;;4.50;;